sensor_id;sensor_type;location;lat;lon;timestamp;temperature;humidity
1309;DHT22;647;48.840;9.314;2022-10-31T00:01:45;13.40;1.00
1309;DHT22;647;48.840;9.314;2022-10-31T00:04:11;13.30;1.00
1309;DHT22;647;48.840;9.314;2022-10-31T00:06:38;13.30;1.00
1309;DHT22;647;48.840;9.314;2022-10-31T00:09:05;13.30;1.00
1309;DHT22;647;48.840;9.314;2022-10-31T00:11:33;13.20;1.00
1309;DHT22;647;48.840;9.314;2022-10-31T00:14:00;13.20;1.00
1309;DHT22;647;48.840;9.314;2022-10-31T00:16:27;13.20;1.00
1309;DHT22;647;48.840;9.314;2022-10-31T00:18:56;13.20;1.00
1309;DHT22;647;48.840;9.314;2022-10-31T00:21:24;13.20;1.00
1309;DHT22;647;48.840;9.314;2022-10-31T00:23:51;13.10;1.00
1309;DHT22;647;48.840;9.314;2022-10-31T00:26:18;13.10;1.00
1309;DHT22;647;48.840;9.314;2022-10-31T00:28:47;13.00;1.00
1309;DHT22;647;48.840;9.314;2022-10-31T00:31:14;13.00;1.00
1309;DHT22;647;48.840;9.314;2022-10-31T00:33:42;13.00;1.00
1309;DHT22;647;48.840;9.314;2022-10-31T00:36:12;13.10;1.00
1309;DHT22;647;48.840;9.314;2022-10-31T00:38:39;13.10;1.00
1309;DHT22;647;48.840;9.314;2022-10-31T00:41:06;13.10;1.00
1309;DHT22;647;48.840;9.314;2022-10-31T00:43:33;13.10;1.00
1309;DHT22;647;48.840;9.314;2022-10-31T00:46:01;13.00;1.00
1309;DHT22;647;48.840;9.314;2022-10-31T00:48:28;13.00;1.00
1309;DHT22;647;48.840;9.314;2022-10-31T00:50:54;13.00;1.00
1309;DHT22;647;48.840;9.314;2022-10-31T00:53:21;13.10;1.00
1309;DHT22;647;48.840;9.314;2022-10-31T00:55:48;13.00;1.00
1309;DHT22;647;48.840;9.314;2022-10-31T00:58:15;13.00;1.00
1309;DHT22;647;48.840;9.314;2022-10-31T01:00:42;13.00;1.00
1309;DHT22;647;48.840;9.314;2022-10-31T01:03:10;13.00;1.00
1309;DHT22;647;48.840;9.314;2022-10-31T01:05:37;12.90;1.00
1309;DHT22;647;48.840;9.314;2022-10-31T01:08:04;12.90;1.00
1309;DHT22;647;48.840;9.314;2022-10-31T01:10:31;12.90;1.00
1309;DHT22;647;48.840;9.314;2022-10-31T01:12:57;12.90;1.00
1309;DHT22;647;48.840;9.314;2022-10-31T01:15:24;12.90;1.00
1309;DHT22;647;48.840;9.314;2022-10-31T01:17:51;12.80;1.00
1309;DHT22;647;48.840;9.314;2022-10-31T01:20:19;12.80;1.00
1309;DHT22;647;48.840;9.314;2022-10-31T01:22:46;12.80;1.00
1309;DHT22;647;48.840;9.314;2022-10-31T01:25:13;12.80;1.00
1309;DHT22;647;48.840;9.314;2022-10-31T01:27:40;12.80;1.00
1309;DHT22;647;48.840;9.314;2022-10-31T01:30:07;12.60;1.00
1309;DHT22;647;48.840;9.314;2022-10-31T01:32:34;12.70;1.00
1309;DHT22;647;48.840;9.314;2022-10-31T01:35:01;12.70;1.00
1309;DHT22;647;48.840;9.314;2022-10-31T01:37:30;12.70;1.00
1309;DHT22;647;48.840;9.314;2022-10-31T01:39:58;12.80;1.00
1309;DHT22;647;48.840;9.314;2022-10-31T01:42:24;12.80;1.00
1309;DHT22;647;48.840;9.314;2022-10-31T01:44:55;12.80;1.00
1309;DHT22;647;48.840;9.314;2022-10-31T01:47:32;12.80;1.00
1309;DHT22;647;48.840;9.314;2022-10-31T01:50:03;12.80;1.00
1309;DHT22;647;48.840;9.314;2022-10-31T01:52:35;12.80;1.00
1309;DHT22;647;48.840;9.314;2022-10-31T01:55:05;12.80;1.00
1309;DHT22;647;48.840;9.314;2022-10-31T01:57:33;12.80;1.00
1309;DHT22;647;48.840;9.314;2022-10-31T02:00:04;12.80;1.00
1309;DHT22;647;48.840;9.314;2022-10-31T02:02:32;12.80;1.00
1309;DHT22;647;48.840;9.314;2022-10-31T02:05:00;12.70;1.00
1309;DHT22;647;48.840;9.314;2022-10-31T02:07:33;12.70;1.00
1309;DHT22;647;48.840;9.314;2022-10-31T02:10:03;12.70;1.00
1309;DHT22;647;48.840;9.314;2022-10-31T02:12:31;12.80;1.00
1309;DHT22;647;48.840;9.314;2022-10-31T02:14:59;12.70;1.00
1309;DHT22;647;48.840;9.314;2022-10-31T02:17:26;12.70;1.00
1309;DHT22;647;48.840;9.314;2022-10-31T02:19:58;12.80;1.00
1309;DHT22;647;48.840;9.314;2022-10-31T02:22:32;12.80;1.00
1309;DHT22;647;48.840;9.314;2022-10-31T02:25:19;12.70;1.00
1309;DHT22;647;48.840;9.314;2022-10-31T02:28:10;12.70;1.00
1309;DHT22;647;48.840;9.314;2022-10-31T02:31:06;12.70;1.00
1309;DHT22;647;48.840;9.314;2022-10-31T02:33:41;12.70;1.00
1309;DHT22;647;48.840;9.314;2022-10-31T02:36:11;12.60;1.00
1309;DHT22;647;48.840;9.314;2022-10-31T02:38:51;12.60;1.00
1309;DHT22;647;48.840;9.314;2022-10-31T02:41:25;12.60;1.00
1309;DHT22;647;48.840;9.314;2022-10-31T02:43:58;12.60;1.00
1309;DHT22;647;48.840;9.314;2022-10-31T02:46:33;12.50;1.00
1309;DHT22;647;48.840;9.314;2022-10-31T02:49:06;12.50;1.00
1309;DHT22;647;48.840;9.314;2022-10-31T02:51:34;12.50;1.00
1309;DHT22;647;48.840;9.314;2022-10-31T02:54:02;12.50;1.00
1309;DHT22;647;48.840;9.314;2022-10-31T02:56:28;12.50;1.00
1309;DHT22;647;48.840;9.314;2022-10-31T02:58:58;12.50;1.00
1309;DHT22;647;48.840;9.314;2022-10-31T03:01:37;12.40;1.00
1309;DHT22;647;48.840;9.314;2022-10-31T03:04:32;12.40;1.00
1309;DHT22;647;48.840;9.314;2022-10-31T03:07:08;12.40;1.00
1309;DHT22;647;48.840;9.314;2022-10-31T03:09:42;12.40;1.00
1309;DHT22;647;48.840;9.314;2022-10-31T03:12:15;12.40;1.00
1309;DHT22;647;48.840;9.314;2022-10-31T03:14:50;12.40;1.00
1309;DHT22;647;48.840;9.314;2022-10-31T03:17:24;12.40;1.00
1309;DHT22;647;48.840;9.314;2022-10-31T03:19:54;12.40;1.00
1309;DHT22;647;48.840;9.314;2022-10-31T03:22:25;12.40;1.00
1309;DHT22;647;48.840;9.314;2022-10-31T03:24:55;12.30;1.00
1309;DHT22;647;48.840;9.314;2022-10-31T03:27:25;12.30;1.00
1309;DHT22;647;48.840;9.314;2022-10-31T03:29:55;12.30;1.00
1309;DHT22;647;48.840;9.314;2022-10-31T03:32:27;12.30;1.00
1309;DHT22;647;48.840;9.314;2022-10-31T03:34:58;12.20;1.00
1309;DHT22;647;48.840;9.314;2022-10-31T03:37:27;12.20;1.00
1309;DHT22;647;48.840;9.314;2022-10-31T03:39:58;12.20;1.00
1309;DHT22;647;48.840;9.314;2022-10-31T03:42:27;12.20;1.00
1309;DHT22;647;48.840;9.314;2022-10-31T03:44:57;12.20;1.00
1309;DHT22;647;48.840;9.314;2022-10-31T03:47:27;12.20;1.00
1309;DHT22;647;48.840;9.314;2022-10-31T03:49:54;12.10;1.00
1309;DHT22;647;48.840;9.314;2022-10-31T03:52:25;12.00;1.00
1309;DHT22;647;48.840;9.314;2022-10-31T03:54:56;12.10;1.00
1309;DHT22;647;48.840;9.314;2022-10-31T03:57:26;12.00;1.00
1309;DHT22;647;48.840;9.314;2022-10-31T03:59:57;12.00;1.00
1309;DHT22;647;48.840;9.314;2022-10-31T04:02:30;12.10;1.00
1309;DHT22;647;48.840;9.314;2022-10-31T04:04:58;12.10;1.00
1309;DHT22;647;48.840;9.314;2022-10-31T04:07:28;12.10;1.00
1309;DHT22;647;48.840;9.314;2022-10-31T04:09:57;12.00;1.00
1309;DHT22;647;48.840;9.314;2022-10-31T04:12:25;12.10;1.00
1309;DHT22;647;48.840;9.314;2022-10-31T04:14:53;12.10;1.00
1309;DHT22;647;48.840;9.314;2022-10-31T04:17:23;12.10;1.00
1309;DHT22;647;48.840;9.314;2022-10-31T04:19:52;12.10;1.00
1309;DHT22;647;48.840;9.314;2022-10-31T04:22:19;12.10;1.00
1309;DHT22;647;48.840;9.314;2022-10-31T04:24:46;12.10;1.00
1309;DHT22;647;48.840;9.314;2022-10-31T04:27:13;12.00;1.00
1309;DHT22;647;48.840;9.314;2022-10-31T04:29:39;12.00;1.00
1309;DHT22;647;48.840;9.314;2022-10-31T04:32:06;11.90;1.00
1309;DHT22;647;48.840;9.314;2022-10-31T04:34:33;11.90;1.00
1309;DHT22;647;48.840;9.314;2022-10-31T04:37:01;11.90;1.00
1309;DHT22;647;48.840;9.314;2022-10-31T04:39:29;11.90;1.00
1309;DHT22;647;48.840;9.314;2022-10-31T04:41:56;11.80;1.00
1309;DHT22;647;48.840;9.314;2022-10-31T04:44:22;11.80;1.00
1309;DHT22;647;48.840;9.314;2022-10-31T04:46:49;11.80;1.00
1309;DHT22;647;48.840;9.314;2022-10-31T04:49:16;11.80;1.00
1309;DHT22;647;48.840;9.314;2022-10-31T04:51:43;11.80;1.00
1309;DHT22;647;48.840;9.314;2022-10-31T04:54:11;11.70;1.00
1309;DHT22;647;48.840;9.314;2022-10-31T04:56:37;11.70;1.00
1309;DHT22;647;48.840;9.314;2022-10-31T04:59:04;11.70;1.00
1309;DHT22;647;48.840;9.314;2022-10-31T05:01:31;11.70;1.00
1309;DHT22;647;48.840;9.314;2022-10-31T05:03:58;11.70;1.00
1309;DHT22;647;48.840;9.314;2022-10-31T05:06:24;11.70;1.00
1309;DHT22;647;48.840;9.314;2022-10-31T05:08:51;11.70;1.00
1309;DHT22;647;48.840;9.314;2022-10-31T05:11:20;11.60;1.00
1309;DHT22;647;48.840;9.314;2022-10-31T05:13:46;11.60;1.00
1309;DHT22;647;48.840;9.314;2022-10-31T05:16:13;11.60;1.00
1309;DHT22;647;48.840;9.314;2022-10-31T05:18:40;11.60;1.00
1309;DHT22;647;48.840;9.314;2022-10-31T05:21:07;11.60;1.00
1309;DHT22;647;48.840;9.314;2022-10-31T05:23:34;11.60;1.00
1309;DHT22;647;48.840;9.314;2022-10-31T05:26:00;11.60;1.00
1309;DHT22;647;48.840;9.314;2022-10-31T05:28:28;11.60;1.00
1309;DHT22;647;48.840;9.314;2022-10-31T05:30:55;11.50;1.00
1309;DHT22;647;48.840;9.314;2022-10-31T05:33:22;11.50;1.00
1309;DHT22;647;48.840;9.314;2022-10-31T05:35:49;11.50;1.00
1309;DHT22;647;48.840;9.314;2022-10-31T05:38:16;11.50;1.00
1309;DHT22;647;48.840;9.314;2022-10-31T05:40:42;11.40;1.00
1309;DHT22;647;48.840;9.314;2022-10-31T05:43:09;11.20;1.00
1309;DHT22;647;48.840;9.314;2022-10-31T05:45:37;11.20;1.00
1309;DHT22;647;48.840;9.314;2022-10-31T05:48:05;11.20;1.00
1309;DHT22;647;48.840;9.314;2022-10-31T05:50:32;11.30;1.00
1309;DHT22;647;48.840;9.314;2022-10-31T05:53:00;11.30;1.00
1309;DHT22;647;48.840;9.314;2022-10-31T05:55:28;11.30;1.00
1309;DHT22;647;48.840;9.314;2022-10-31T05:57:55;11.40;1.00
1309;DHT22;647;48.840;9.314;2022-10-31T06:00:22;11.40;1.00
1309;DHT22;647;48.840;9.314;2022-10-31T06:02:57;11.30;1.00
1309;DHT22;647;48.840;9.314;2022-10-31T06:05:24;11.30;1.00
1309;DHT22;647;48.840;9.314;2022-10-31T06:07:51;11.20;1.00
1309;DHT22;647;48.840;9.314;2022-10-31T06:10:18;11.20;1.00
1309;DHT22;647;48.840;9.314;2022-10-31T06:12:46;11.20;1.00
1309;DHT22;647;48.840;9.314;2022-10-31T06:15:13;11.30;1.00
1309;DHT22;647;48.840;9.314;2022-10-31T06:17:40;11.40;1.00
1309;DHT22;647;48.840;9.314;2022-10-31T06:20:09;11.40;1.00
1309;DHT22;647;48.840;9.314;2022-10-31T06:22:36;11.40;1.00
1309;DHT22;647;48.840;9.314;2022-10-31T06:25:03;11.40;1.00
1309;DHT22;647;48.840;9.314;2022-10-31T06:27:30;11.50;1.00
1309;DHT22;647;48.840;9.314;2022-10-31T06:29:57;11.50;1.00
1309;DHT22;647;48.840;9.314;2022-10-31T06:32:24;11.60;1.00
1309;DHT22;647;48.840;9.314;2022-10-31T06:34:51;11.60;1.00
1309;DHT22;647;48.840;9.314;2022-10-31T06:37:19;11.70;1.00
1309;DHT22;647;48.840;9.314;2022-10-31T06:39:45;11.70;1.00
1309;DHT22;647;48.840;9.314;2022-10-31T06:42:12;11.70;1.00
1309;DHT22;647;48.840;9.314;2022-10-31T06:44:41;11.70;1.00
1309;DHT22;647;48.840;9.314;2022-10-31T06:47:08;11.80;1.00
1309;DHT22;647;48.840;9.314;2022-10-31T06:49:35;11.90;1.00
1309;DHT22;647;48.840;9.314;2022-10-31T06:52:02;11.90;1.00
1309;DHT22;647;48.840;9.314;2022-10-31T06:54:30;12.00;1.00
1309;DHT22;647;48.840;9.314;2022-10-31T06:56:57;11.90;1.00
1309;DHT22;647;48.840;9.314;2022-10-31T06:59:24;11.80;1.00
1309;DHT22;647;48.840;9.314;2022-10-31T07:01:50;11.70;1.00
1309;DHT22;647;48.840;9.314;2022-10-31T07:04:17;11.70;1.00
1309;DHT22;647;48.840;9.314;2022-10-31T07:06:44;11.60;1.00
1309;DHT22;647;48.840;9.314;2022-10-31T07:09:11;11.60;1.00
1309;DHT22;647;48.840;9.314;2022-10-31T07:11:39;11.60;1.00
1309;DHT22;647;48.840;9.314;2022-10-31T07:14:06;11.40;1.00
1309;DHT22;647;48.840;9.314;2022-10-31T07:16:33;11.50;1.00
1309;DHT22;647;48.840;9.314;2022-10-31T07:18:59;11.60;1.00
1309;DHT22;647;48.840;9.314;2022-10-31T07:21:26;11.60;1.00
1309;DHT22;647;48.840;9.314;2022-10-31T07:23:53;11.60;1.00
1309;DHT22;647;48.840;9.314;2022-10-31T07:26:20;11.80;1.00
1309;DHT22;647;48.840;9.314;2022-10-31T07:28:48;12.10;1.00
1309;DHT22;647;48.840;9.314;2022-10-31T07:31:15;12.30;1.00
1309;DHT22;647;48.840;9.314;2022-10-31T07:33:41;12.30;1.00
1309;DHT22;647;48.840;9.314;2022-10-31T07:36:08;12.50;1.00
1309;DHT22;647;48.840;9.314;2022-10-31T07:38:35;12.60;1.00
1309;DHT22;647;48.840;9.314;2022-10-31T07:41:02;12.80;1.00
1309;DHT22;647;48.840;9.314;2022-10-31T07:43:29;13.00;1.00
1309;DHT22;647;48.840;9.314;2022-10-31T07:45:57;13.10;1.00
1309;DHT22;647;48.840;9.314;2022-10-31T07:48:24;13.10;1.00
1309;DHT22;647;48.840;9.314;2022-10-31T07:50:50;13.30;1.00
1309;DHT22;647;48.840;9.314;2022-10-31T07:53:17;13.50;1.00
1309;DHT22;647;48.840;9.314;2022-10-31T07:55:44;13.60;1.00
1309;DHT22;647;48.840;9.314;2022-10-31T07:58:12;13.80;1.00
1309;DHT22;647;48.840;9.314;2022-10-31T08:00:41;14.00;1.00
1309;DHT22;647;48.840;9.314;2022-10-31T08:03:11;14.10;1.00
1309;DHT22;647;48.840;9.314;2022-10-31T08:05:38;14.30;1.00
1309;DHT22;647;48.840;9.314;2022-10-31T08:08:06;14.50;1.00
1309;DHT22;647;48.840;9.314;2022-10-31T08:10:34;14.50;1.00
1309;DHT22;647;48.840;9.314;2022-10-31T08:13:03;14.70;1.00
1309;DHT22;647;48.840;9.314;2022-10-31T08:15:31;14.90;1.00
1309;DHT22;647;48.840;9.314;2022-10-31T08:17:59;15.10;1.00
1309;DHT22;647;48.840;9.314;2022-10-31T08:20:29;15.30;1.00
1309;DHT22;647;48.840;9.314;2022-10-31T08:22:56;15.40;1.00
1309;DHT22;647;48.840;9.314;2022-10-31T08:25:24;15.50;1.00
1309;DHT22;647;48.840;9.314;2022-10-31T08:27:51;15.70;1.00
1309;DHT22;647;48.840;9.314;2022-10-31T08:30:19;15.80;1.00
1309;DHT22;647;48.840;9.314;2022-10-31T08:32:46;16.00;1.00
1309;DHT22;647;48.840;9.314;2022-10-31T08:35:13;16.20;1.00
1309;DHT22;647;48.840;9.314;2022-10-31T08:37:41;16.30;1.00
1309;DHT22;647;48.840;9.314;2022-10-31T08:40:09;16.50;1.00
1309;DHT22;647;48.840;9.314;2022-10-31T08:42:36;16.60;1.00
1309;DHT22;647;48.840;9.314;2022-10-31T08:45:04;16.80;1.00
1309;DHT22;647;48.840;9.314;2022-10-31T08:47:31;17.00;1.00
1309;DHT22;647;48.840;9.314;2022-10-31T08:49:57;17.10;1.00
1309;DHT22;647;48.840;9.314;2022-10-31T08:52:24;17.30;1.00
1309;DHT22;647;48.840;9.314;2022-10-31T08:54:53;17.30;1.00
1309;DHT22;647;48.840;9.314;2022-10-31T08:57:19;17.40;1.00
1309;DHT22;647;48.840;9.314;2022-10-31T08:59:46;17.40;1.00
1309;DHT22;647;48.840;9.314;2022-10-31T09:02:13;17.50;1.00
1309;DHT22;647;48.840;9.314;2022-10-31T09:04:40;17.60;1.00
1309;DHT22;647;48.840;9.314;2022-10-31T09:07:07;17.60;1.00
1309;DHT22;647;48.840;9.314;2022-10-31T09:09:33;17.70;1.00
1309;DHT22;647;48.840;9.314;2022-10-31T09:12:02;17.80;1.00
1309;DHT22;647;48.840;9.314;2022-10-31T09:14:28;17.70;1.00
1309;DHT22;647;48.840;9.314;2022-10-31T09:16:55;17.20;1.00
1309;DHT22;647;48.840;9.314;2022-10-31T09:19:22;17.30;1.00
1309;DHT22;647;48.840;9.314;2022-10-31T09:21:53;17.70;1.00
1309;DHT22;647;48.840;9.314;2022-10-31T09:24:20;17.40;1.00
1309;DHT22;647;48.840;9.314;2022-10-31T09:26:47;17.10;1.00
1309;DHT22;647;48.840;9.314;2022-10-31T09:29:15;17.00;1.00
1309;DHT22;647;48.840;9.314;2022-10-31T09:31:42;17.00;1.00
1309;DHT22;647;48.840;9.314;2022-10-31T09:34:08;17.20;1.00
1309;DHT22;647;48.840;9.314;2022-10-31T09:36:36;17.70;1.00
1309;DHT22;647;48.840;9.314;2022-10-31T09:39:02;18.10;1.00
1309;DHT22;647;48.840;9.314;2022-10-31T09:41:44;18.70;1.00
1309;DHT22;647;48.840;9.314;2022-10-31T09:44:21;18.80;1.00
1309;DHT22;647;48.840;9.314;2022-10-31T09:46:55;19.00;1.00
1309;DHT22;647;48.840;9.314;2022-10-31T09:49:34;18.90;1.00
1309;DHT22;647;48.840;9.314;2022-10-31T09:52:08;18.30;1.00
1309;DHT22;647;48.840;9.314;2022-10-31T09:54:40;18.50;1.00
1309;DHT22;647;48.840;9.314;2022-10-31T09:57:12;18.60;1.00
1309;DHT22;647;48.840;9.314;2022-10-31T09:59:42;19.00;1.00
1309;DHT22;647;48.840;9.314;2022-10-31T10:02:15;19.00;1.00
1309;DHT22;647;48.840;9.314;2022-10-31T10:04:47;19.70;1.00
1309;DHT22;647;48.840;9.314;2022-10-31T10:07:22;20.20;1.00
1309;DHT22;647;48.840;9.314;2022-10-31T10:09:52;20.70;1.00
1309;DHT22;647;48.840;9.314;2022-10-31T10:12:42;20.80;1.00
1309;DHT22;647;48.840;9.314;2022-10-31T10:15:33;20.70;1.00
1309;DHT22;647;48.840;9.314;2022-10-31T10:18:09;21.00;1.00
1309;DHT22;647;48.840;9.314;2022-10-31T10:20:43;21.50;1.00
1309;DHT22;647;48.840;9.314;2022-10-31T10:23:29;22.30;1.00
1309;DHT22;647;48.840;9.314;2022-10-31T10:26:02;23.10;1.00
1309;DHT22;647;48.840;9.314;2022-10-31T10:28:33;23.90;99.90
1309;DHT22;647;48.840;9.314;2022-10-31T10:31:08;23.40;99.90
1309;DHT22;647;48.840;9.314;2022-10-31T10:33:39;23.00;99.90
1309;DHT22;647;48.840;9.314;2022-10-31T10:36:11;23.40;99.90
1309;DHT22;647;48.840;9.314;2022-10-31T10:38:49;23.20;99.90
1309;DHT22;647;48.840;9.314;2022-10-31T10:41:18;23.30;99.90
1309;DHT22;647;48.840;9.314;2022-10-31T10:43:45;23.50;99.90
1309;DHT22;647;48.840;9.314;2022-10-31T10:46:23;24.10;99.90
1309;DHT22;647;48.840;9.314;2022-10-31T10:49:17;24.50;99.90
1309;DHT22;647;48.840;9.314;2022-10-31T10:51:47;24.40;99.90
1309;DHT22;647;48.840;9.314;2022-10-31T10:54:53;24.50;99.90
1309;DHT22;647;48.840;9.314;2022-10-31T11:00:23;24.10;99.90
1309;DHT22;647;48.840;9.314;2022-10-31T11:02:52;23.70;99.90
1309;DHT22;647;48.840;9.314;2022-10-31T11:05:24;23.60;99.90
1309;DHT22;647;48.840;9.314;2022-10-31T11:07:51;23.40;99.90
1309;DHT22;647;48.840;9.314;2022-10-31T11:10:18;23.20;99.90
1309;DHT22;647;48.840;9.314;2022-10-31T11:12:58;23.00;99.90
1309;DHT22;647;48.840;9.314;2022-10-31T11:15:27;23.20;99.90
1309;DHT22;647;48.840;9.314;2022-10-31T11:17:56;23.30;99.90
1309;DHT22;647;48.840;9.314;2022-10-31T11:20:28;23.50;99.90
1309;DHT22;647;48.840;9.314;2022-10-31T11:23:17;23.50;99.90
1309;DHT22;647;48.840;9.314;2022-10-31T11:25:52;23.70;99.90
1309;DHT22;647;48.840;9.314;2022-10-31T11:28:19;24.00;99.90
1309;DHT22;647;48.840;9.314;2022-10-31T11:30:47;24.30;99.90
1309;DHT22;647;48.840;9.314;2022-10-31T11:33:19;24.30;99.90
1309;DHT22;647;48.840;9.314;2022-10-31T11:35:48;25.30;99.90
1309;DHT22;647;48.840;9.314;2022-10-31T11:38:18;26.40;99.90
1309;DHT22;647;48.840;9.314;2022-10-31T11:40:54;26.80;99.90
1309;DHT22;647;48.840;9.314;2022-10-31T11:43:21;27.30;99.90
1309;DHT22;647;48.840;9.314;2022-10-31T11:45:49;27.70;99.90
1309;DHT22;647;48.840;9.314;2022-10-31T11:48:18;27.80;99.90
1309;DHT22;647;48.840;9.314;2022-10-31T11:50:49;27.70;99.90
1309;DHT22;647;48.840;9.314;2022-10-31T11:53:18;27.00;99.90
1309;DHT22;647;48.840;9.314;2022-10-31T11:55:46;26.70;99.90
1309;DHT22;647;48.840;9.314;2022-10-31T11:58:21;26.90;99.90
1309;DHT22;647;48.840;9.314;2022-10-31T12:00:50;27.40;99.90
1309;DHT22;647;48.840;9.314;2022-10-31T12:03:27;27.80;99.90
1309;DHT22;647;48.840;9.314;2022-10-31T12:06:00;28.50;99.90
1309;DHT22;647;48.840;9.314;2022-10-31T12:08:30;28.70;99.90
1309;DHT22;647;48.840;9.314;2022-10-31T12:11:04;28.60;99.90
1309;DHT22;647;48.840;9.314;2022-10-31T12:13:39;28.00;99.90
1309;DHT22;647;48.840;9.314;2022-10-31T12:16:12;27.40;99.90
1309;DHT22;647;48.840;9.314;2022-10-31T12:18:58;27.10;99.90
1309;DHT22;647;48.840;9.314;2022-10-31T12:21:45;26.80;99.90
1309;DHT22;647;48.840;9.314;2022-10-31T12:24:27;26.60;99.90
1309;DHT22;647;48.840;9.314;2022-10-31T12:27:03;26.60;99.90
1309;DHT22;647;48.840;9.314;2022-10-31T12:29:40;26.90;99.90
1309;DHT22;647;48.840;9.314;2022-10-31T12:32:19;27.50;99.90
1309;DHT22;647;48.840;9.314;2022-10-31T12:35:23;28.80;99.90
1309;DHT22;647;48.840;9.314;2022-10-31T12:38:08;30.30;99.90
1309;DHT22;647;48.840;9.314;2022-10-31T12:40:57;30.10;99.90
1309;DHT22;647;48.840;9.314;2022-10-31T12:43:35;29.10;99.90
1309;DHT22;647;48.840;9.314;2022-10-31T12:46:09;28.20;99.90
1309;DHT22;647;48.840;9.314;2022-10-31T12:49:04;27.50;99.90
1309;DHT22;647;48.840;9.314;2022-10-31T12:51:40;27.10;99.90
1309;DHT22;647;48.840;9.314;2022-10-31T12:54:23;26.70;99.90
1309;DHT22;647;48.840;9.314;2022-10-31T12:57:01;26.40;99.90
1309;DHT22;647;48.840;9.314;2022-10-31T12:59:33;26.10;99.90
1309;DHT22;647;48.840;9.314;2022-10-31T13:02:06;25.80;99.90
1309;DHT22;647;48.840;9.314;2022-10-31T13:04:41;25.60;99.90
1309;DHT22;647;48.840;9.314;2022-10-31T13:07:13;25.30;99.90
1309;DHT22;647;48.840;9.314;2022-10-31T13:09:47;25.00;99.90
1309;DHT22;647;48.840;9.314;2022-10-31T13:12:19;24.80;99.90
1309;DHT22;647;48.840;9.314;2022-10-31T13:14:50;24.50;99.90
1309;DHT22;647;48.840;9.314;2022-10-31T13:17:24;24.20;99.90
1309;DHT22;647;48.840;9.314;2022-10-31T13:19:55;23.90;99.90
1309;DHT22;647;48.840;9.314;2022-10-31T13:22:26;23.80;99.90
1309;DHT22;647;48.840;9.314;2022-10-31T13:24:57;23.70;99.90
1309;DHT22;647;48.840;9.314;2022-10-31T13:27:28;23.70;99.90
1309;DHT22;647;48.840;9.314;2022-10-31T13:30:01;23.60;99.90
1309;DHT22;647;48.840;9.314;2022-10-31T13:32:36;23.50;99.90
1309;DHT22;647;48.840;9.314;2022-10-31T13:35:12;23.50;99.90
1309;DHT22;647;48.840;9.314;2022-10-31T13:37:46;23.50;99.90
1309;DHT22;647;48.840;9.314;2022-10-31T13:40:24;23.50;99.90
1309;DHT22;647;48.840;9.314;2022-10-31T13:42:59;23.50;99.90
1309;DHT22;647;48.840;9.314;2022-10-31T13:45:28;23.40;99.90
1309;DHT22;647;48.840;9.314;2022-10-31T13:47:57;23.50;99.90
1309;DHT22;647;48.840;9.314;2022-10-31T13:50:25;23.60;99.90
1309;DHT22;647;48.840;9.314;2022-10-31T13:53:09;24.00;99.90
1309;DHT22;647;48.840;9.314;2022-10-31T13:55:39;26.60;99.90
1309;DHT22;647;48.840;9.314;2022-10-31T13:58:24;31.10;99.90
1309;DHT22;647;48.840;9.314;2022-10-31T14:03:45;35.30;99.90
1309;DHT22;647;48.840;9.314;2022-10-31T14:06:14;33.30;99.90
1309;DHT22;647;48.840;9.314;2022-10-31T14:08:49;32.30;99.90
1309;DHT22;647;48.840;9.314;2022-10-31T14:11:21;32.30;99.90
1309;DHT22;647;48.840;9.314;2022-10-31T14:13:49;32.90;99.90
1309;DHT22;647;48.840;9.314;2022-10-31T14:16:20;32.70;99.90
1309;DHT22;647;48.840;9.314;2022-10-31T14:18:50;32.10;99.90
1309;DHT22;647;48.840;9.314;2022-10-31T14:21:27;31.30;99.90
1309;DHT22;647;48.840;9.314;2022-10-31T14:23:56;30.50;99.90
1309;DHT22;647;48.840;9.314;2022-10-31T14:26:35;29.90;99.90
1309;DHT22;647;48.840;9.314;2022-10-31T14:29:22;29.60;99.90
1309;DHT22;647;48.840;9.314;2022-10-31T14:31:58;29.70;99.90
1309;DHT22;647;48.840;9.314;2022-10-31T14:34:28;30.10;99.90
1309;DHT22;647;48.840;9.314;2022-10-31T14:37:18;30.20;99.90
1309;DHT22;647;48.840;9.314;2022-10-31T14:39:57;30.10;99.90
1309;DHT22;647;48.840;9.314;2022-10-31T14:42:37;29.70;99.90
1309;DHT22;647;48.840;9.314;2022-10-31T14:45:18;29.40;99.90
1309;DHT22;647;48.840;9.314;2022-10-31T14:47:58;28.90;99.90
1309;DHT22;647;48.840;9.314;2022-10-31T14:50:37;28.40;99.90
1309;DHT22;647;48.840;9.314;2022-10-31T14:53:13;27.80;99.90
1309;DHT22;647;48.840;9.314;2022-10-31T14:55:47;27.20;99.90
1309;DHT22;647;48.840;9.314;2022-10-31T14:58:19;26.60;99.90
1309;DHT22;647;48.840;9.314;2022-10-31T15:00:52;26.10;99.90
1309;DHT22;647;48.840;9.314;2022-10-31T15:03:25;25.50;99.90
1309;DHT22;647;48.840;9.314;2022-10-31T15:05:56;24.90;99.90
1309;DHT22;647;48.840;9.314;2022-10-31T15:08:38;24.30;99.90
1309;DHT22;647;48.840;9.314;2022-10-31T15:11:15;23.80;99.90
1309;DHT22;647;48.840;9.314;2022-10-31T15:13:44;23.40;99.90
1309;DHT22;647;48.840;9.314;2022-10-31T15:16:14;23.30;99.90
1309;DHT22;647;48.840;9.314;2022-10-31T15:18:51;23.20;99.90
1309;DHT22;647;48.840;9.314;2022-10-31T15:21:20;23.10;99.90
1309;DHT22;647;48.840;9.314;2022-10-31T15:23:49;22.90;99.90
1309;DHT22;647;48.840;9.314;2022-10-31T15:26:20;22.70;99.90
1309;DHT22;647;48.840;9.314;2022-10-31T15:28:58;22.30;99.90
1309;DHT22;647;48.840;9.314;2022-10-31T15:31:25;22.10;1.00
1309;DHT22;647;48.840;9.314;2022-10-31T15:33:53;21.90;1.00
1309;DHT22;647;48.840;9.314;2022-10-31T15:36:24;21.60;1.00
1309;DHT22;647;48.840;9.314;2022-10-31T15:38:51;21.40;1.00
1309;DHT22;647;48.840;9.314;2022-10-31T15:41:28;21.20;1.00
1309;DHT22;647;48.840;9.314;2022-10-31T15:44:01;21.00;1.00
1309;DHT22;647;48.840;9.314;2022-10-31T15:46:30;20.70;1.00
1309;DHT22;647;48.840;9.314;2022-10-31T15:48:57;20.30;1.00
1309;DHT22;647;48.840;9.314;2022-10-31T15:51:29;20.00;1.00
1309;DHT22;647;48.840;9.314;2022-10-31T15:53:57;19.70;1.00
1309;DHT22;647;48.840;9.314;2022-10-31T15:56:28;19.50;1.00
1309;DHT22;647;48.840;9.314;2022-10-31T15:58:57;19.20;1.00
1309;DHT22;647;48.840;9.314;2022-10-31T16:01:27;19.00;1.00
1309;DHT22;647;48.840;9.314;2022-10-31T16:03:59;18.90;1.00
1309;DHT22;647;48.840;9.314;2022-10-31T16:06:27;18.70;1.00
1309;DHT22;647;48.840;9.314;2022-10-31T16:08:54;18.50;1.00
1309;DHT22;647;48.840;9.314;2022-10-31T16:11:24;18.30;1.00
1309;DHT22;647;48.840;9.314;2022-10-31T16:13:59;18.20;1.00
1309;DHT22;647;48.840;9.314;2022-10-31T16:16:27;18.10;1.00
1309;DHT22;647;48.840;9.314;2022-10-31T16:18:56;17.90;1.00
1309;DHT22;647;48.840;9.314;2022-10-31T16:21:25;17.80;1.00
1309;DHT22;647;48.840;9.314;2022-10-31T16:23:57;17.80;1.00
1309;DHT22;647;48.840;9.314;2022-10-31T16:26:25;17.70;1.00
1309;DHT22;647;48.840;9.314;2022-10-31T16:28:53;17.60;1.00
1309;DHT22;647;48.840;9.314;2022-10-31T16:31:29;17.50;1.00
1309;DHT22;647;48.840;9.314;2022-10-31T16:34:13;17.40;1.00
1309;DHT22;647;48.840;9.314;2022-10-31T16:36:40;17.40;1.00
1309;DHT22;647;48.840;9.314;2022-10-31T16:39:08;17.30;1.00
1309;DHT22;647;48.840;9.314;2022-10-31T16:41:38;17.20;1.00
1309;DHT22;647;48.840;9.314;2022-10-31T16:44:12;17.00;1.00
1309;DHT22;647;48.840;9.314;2022-10-31T16:46:42;17.00;1.00
1309;DHT22;647;48.840;9.314;2022-10-31T16:49:08;16.90;1.00
1309;DHT22;647;48.840;9.314;2022-10-31T16:51:35;16.80;1.00
1309;DHT22;647;48.840;9.314;2022-10-31T16:54:02;16.70;1.00
1309;DHT22;647;48.840;9.314;2022-10-31T16:56:30;16.60;1.00
1309;DHT22;647;48.840;9.314;2022-10-31T16:58:59;16.50;1.00